Briefing drone pour Bourg-de-peage

Rechercher une autre localisation

Conditions de vol :


Nous sommes le : Samedi 24 février 2024
Il est 22:39 UTC (23:39 LT)

Lever de soleil : 06:00 UTC (07:00 LT)
Coucher de soleil : 17:45 UTC (18:45 LT)

Météo

L'essentiel des conditions de vol

VIGILANCE MÉTÉO FRANCE - Drôme (26)
Pas de vigilances particulieres
METAR de LFLU
LFLU 241800Z AUTO 15007KT CAVOK 08/01 Q1008

Date d'émission: 24/02/2024
Heure d'émission: 18:00 UTC
Vent: 150° pour 7 KT (13 km/h)
Visibilité horizontale: > 10 km
Plafond : Plafond et visibilité OK (CAVOK)
Température: 8 °C
Point de rosée: 1 °C
Humidité: 61%
Pression (QNH): 1008 hPa
Prévision 24h pour Valence (10 km)
Vent : 183° pour 7 KT (26 km/h)
Temperature Maxi: 8 °C
Temperature Min: 8 °C
Humidité : 75%
Condition : Légère pluie


WEBCAM POUR BOURG-DE-PEAGE

Réglementation

Voler en sécurité

CARTES AERONAUTIQUE 1/500.000
CARTE AZBA (Reseau basse altitude)
CARTES VAC (LFLU)
SUP AIP




Chargement des AIP...
NOTAM (BOURG-DE-PEAGE + Terrain à proximité / FIR )




Chargement des NOTAMS...
CONTACT PREFECTURE 26
Drôme (26) : [email protected]


Avertissement : Les données mises à disposition sont indicatives. Oxygène Drone ne pourra être tenu responsable de dégâts causés aux biens et aux personnes.